createdAt,value
2017-11-19T00:00:16.531Z,5.30
2017-11-19T00:02:44.542Z,5.30
2017-11-19T00:05:12.550Z,5.30
2017-11-19T00:07:40.571Z,5.40
2017-11-19T00:10:08.618Z,5.50
2017-11-19T00:12:37.561Z,5.50
2017-11-19T00:15:06.648Z,5.50
2017-11-19T00:17:34.970Z,5.50
2017-11-19T00:20:03.241Z,5.50
2017-11-19T00:22:32.196Z,5.40
2017-11-19T00:25:00.832Z,5.40
2017-11-19T00:27:29.344Z,5.30
2017-11-19T00:29:57.704Z,5.30
2017-11-19T00:32:26.006Z,5.30
2017-11-19T00:34:55.122Z,5.40
2017-11-19T00:37:23.403Z,5.30
2017-11-19T00:39:51.711Z,5.40
2017-11-19T00:42:20.796Z,5.40
2017-11-19T00:44:49.067Z,5.40
2017-11-19T00:47:17.384Z,5.40
2017-11-19T00:49:45.647Z,5.30
2017-11-19T00:52:13.906Z,5.30
2017-11-19T00:54:42.151Z,5.30
2017-11-19T00:57:12.103Z,5.30
2017-11-19T00:59:41.332Z,5.30
2017-11-19T01:02:09.564Z,5.30
2017-11-19T01:04:37.941Z,5.30
2017-11-19T01:07:06.196Z,5.40
2017-11-19T01:09:36.029Z,5.40
2017-11-19T01:12:05.189Z,5.40
2017-11-19T01:14:33.451Z,5.40
2017-11-19T01:17:02.023Z,5.30
2017-11-19T01:19:30.642Z,5.30
2017-11-19T01:21:59.324Z,5.30
2017-11-19T01:24:28.620Z,5.30
2017-11-19T01:26:57.709Z,5.20
2017-11-19T01:29:25.983Z,5.20
2017-11-19T01:31:54.599Z,5.20
2017-11-19T01:34:23.637Z,5.30
2017-11-19T01:36:51.898Z,5.30
2017-11-19T01:39:20.198Z,5.40
2017-11-19T01:41:48.457Z,5.30
2017-11-19T01:51:03.089Z,5.30
2017-11-19T01:53:33.047Z,5.00
2017-11-19T01:56:02.236Z,5.00
2017-11-19T01:58:31.937Z,5.00
2017-11-19T02:01:00.160Z,4.90
2017-11-19T02:03:28.468Z,4.90
2017-11-19T02:05:56.890Z,4.90
2017-11-19T02:08:25.096Z,4.90
2017-11-19T02:10:53.404Z,4.90
2017-11-19T02:13:21.634Z,4.90
2017-11-19T02:15:49.911Z,4.90
2017-11-19T02:18:19.298Z,4.90
2017-11-19T02:20:48.352Z,4.90
2017-11-19T02:23:16.642Z,4.90
2017-11-19T02:25:44.889Z,4.90
2017-11-19T02:28:13.172Z,4.90
2017-11-19T02:30:41.438Z,4.80
2017-11-19T02:33:09.708Z,4.80
2017-11-19T02:35:39.547Z,4.80
2017-11-19T02:38:08.628Z,4.70
2017-11-19T02:40:36.876Z,4.80
2017-11-19T02:43:05.923Z,4.80
2017-11-19T02:45:34.805Z,4.70
2017-11-19T02:48:03.215Z,4.70
2017-11-19T02:50:31.461Z,4.70
2017-11-19T02:52:59.773Z,4.80
2017-11-19T02:55:28.013Z,4.80
2017-11-19T02:57:56.278Z,4.80
2017-11-19T03:00:24.568Z,4.80
2017-11-19T03:02:52.827Z,4.70
2017-11-19T03:05:21.135Z,4.70
2017-11-19T03:07:49.447Z,4.70
2017-11-19T03:10:18.909Z,4.60
2017-11-19T03:12:47.288Z,4.50
2017-11-19T03:15:17.337Z,4.50
2017-11-19T03:17:45.571Z,4.50
2017-11-19T03:20:13.852Z,4.50
2017-11-19T03:22:42.145Z,4.50
2017-11-19T03:25:10.437Z,4.40
2017-11-19T03:27:38.698Z,4.40
2017-11-19T03:30:07.013Z,4.50
2017-11-19T03:32:36.045Z,4.50
2017-11-19T03:35:04.286Z,4.50
2017-11-19T03:37:32.542Z,4.50
2017-11-19T03:40:00.795Z,4.60
2017-11-19T03:42:29.055Z,4.60
2017-11-19T03:44:57.358Z,4.50
2017-11-19T03:47:25.645Z,4.50
2017-11-19T03:49:53.947Z,4.40
2017-11-19T03:52:22.210Z,4.40
2017-11-19T03:54:50.482Z,4.30
2017-11-19T03:57:18.839Z,4.30
2017-11-19T03:59:47.074Z,4.40
2017-11-19T04:02:16.077Z,4.30
2017-11-19T04:04:45.119Z,4.30
2017-11-19T04:07:13.369Z,4.30
2017-11-19T04:09:41.633Z,4.30
2017-11-19T04:12:09.922Z,4.20
2017-11-19T04:14:38.209Z,4.20
2017-11-19T04:17:07.280Z,4.10
2017-11-19T04:19:35.536Z,4.10
2017-11-19T04:22:03.867Z,4.10
2017-11-19T04:24:32.098Z,4.10
2017-11-19T04:27:01.110Z,4.10
2017-11-19T04:29:30.137Z,4.10
2017-11-19T04:31:58.461Z,4.10
2017-11-19T04:34:26.800Z,4.20
2017-11-19T04:36:55.519Z,4.20
2017-11-19T04:39:23.804Z,4.20
2017-11-19T04:41:52.857Z,4.20
2017-11-19T04:44:21.920Z,4.20
2017-11-19T04:46:50.922Z,4.40
2017-11-19T04:49:19.160Z,4.40
2017-11-19T04:51:47.424Z,4.50
2017-11-19T04:54:16.634Z,4.50
2017-11-19T04:56:44.876Z,4.50
2017-11-19T04:59:13.129Z,4.60
2017-11-19T05:01:41.380Z,4.60
2017-11-19T05:04:09.664Z,4.60
2017-11-19T05:06:38.014Z,4.60
2017-11-19T05:09:06.272Z,4.60
2017-11-19T05:11:34.510Z,4.60
2017-11-19T05:14:02.888Z,4.70
2017-11-19T05:16:31.880Z,4.60
2017-11-19T05:19:00.201Z,4.60
2017-11-19T05:21:28.456Z,4.60
2017-11-19T05:23:57.095Z,4.70
2017-11-19T05:26:26.193Z,4.70
2017-11-19T05:28:54.443Z,4.70
2017-11-19T05:31:22.709Z,4.60
2017-11-19T05:33:50.937Z,4.60
2017-11-19T05:36:19.964Z,4.70
2017-11-19T05:38:48.228Z,4.70
2017-11-19T05:41:16.539Z,4.70
2017-11-19T05:43:44.809Z,4.80
2017-11-19T05:46:13.090Z,4.70
2017-11-19T05:48:41.445Z,4.70
2017-11-19T05:51:11.294Z,4.80
2017-11-19T05:53:39.563Z,4.80
2017-11-19T05:56:07.792Z,4.80
2017-11-19T05:58:36.858Z,4.80
2017-11-19T06:01:05.094Z,4.70
2017-11-19T06:03:33.363Z,4.80
2017-11-19T06:06:02.345Z,4.70
2017-11-19T06:08:31.337Z,4.70
2017-11-19T06:11:00.363Z,4.80
2017-11-19T06:13:28.646Z,4.80
2017-11-19T06:15:56.972Z,4.80
2017-11-19T06:18:25.223Z,4.80
2017-11-19T06:20:53.823Z,4.80
2017-11-19T06:23:22.100Z,4.70
2017-11-19T06:25:50.360Z,4.60
2017-11-19T06:28:18.614Z,4.60
2017-11-19T06:30:46.870Z,4.60
2017-11-19T06:33:15.119Z,4.60
2017-11-19T06:35:43.378Z,4.60
2017-11-19T06:38:11.643Z,4.50
2017-11-19T06:40:39.901Z,4.60
2017-11-19T06:43:08.144Z,4.70
2017-11-19T06:45:37.147Z,4.60
2017-11-19T06:48:06.167Z,4.70
2017-11-19T06:50:34.412Z,4.60
2017-11-19T06:53:02.727Z,4.60
2017-11-19T06:55:31.173Z,4.60
2017-11-19T06:58:00.176Z,4.70
2017-11-19T07:00:29.044Z,4.70
2017-11-19T07:02:58.065Z,4.70
2017-11-19T07:05:26.341Z,4.70
2017-11-19T07:07:55.498Z,4.70
2017-11-19T07:10:23.752Z,4.70
2017-11-19T07:12:52.061Z,4.80
2017-11-19T07:15:20.338Z,4.70
2017-11-19T07:17:48.588Z,4.80
2017-11-19T07:20:16.988Z,4.90
2017-11-19T07:22:45.226Z,4.80
2017-11-19T07:25:13.544Z,4.80
2017-11-19T07:27:43.101Z,4.70
2017-11-19T07:30:12.137Z,4.80
2017-11-19T07:32:40.362Z,4.80
2017-11-19T07:35:09.387Z,4.80
2017-11-19T07:37:37.679Z,4.80
2017-11-19T07:40:05.967Z,4.80
2017-11-19T07:42:34.228Z,4.90
2017-11-19T07:45:02.489Z,4.90
2017-11-19T07:47:30.769Z,4.90
2017-11-19T07:49:59.011Z,4.90
2017-11-19T07:52:27.326Z,5.00
2017-11-19T07:54:55.574Z,5.10
2017-11-19T07:57:23.885Z,5.20
2017-11-19T07:59:52.144Z,5.10
2017-11-19T08:02:21.478Z,5.10
2017-11-19T08:04:49.771Z,5.10
2017-11-19T08:07:18.824Z,5.10
2017-11-19T08:09:47.108Z,5.20
2017-11-19T08:12:15.648Z,5.30
2017-11-19T08:14:44.692Z,5.40
2017-11-19T08:17:13.832Z,5.40
2017-11-19T08:19:42.086Z,5.40
2017-11-19T08:22:10.335Z,5.40
2017-11-19T08:24:38.661Z,5.30
2017-11-19T08:27:06.900Z,5.30
2017-11-19T08:29:35.217Z,5.50
2017-11-19T08:32:04.315Z,5.60
2017-11-19T08:34:32.660Z,5.70
2017-11-19T08:37:00.930Z,5.70
2017-11-19T08:39:29.178Z,5.70
2017-11-19T08:41:57.492Z,5.70
2017-11-19T08:44:25.769Z,5.60
2017-11-19T08:46:54.324Z,5.70
2017-11-19T08:49:22.593Z,5.70
2017-11-19T08:51:51.597Z,5.80
2017-11-19T08:54:19.901Z,5.80
2017-11-19T08:56:49.995Z,5.80
2017-11-19T08:59:21.245Z,5.90
2017-11-19T09:01:51.326Z,5.80
2017-11-19T09:04:20.521Z,5.80
2017-11-19T09:06:49.268Z,5.80
2017-11-19T09:09:19.230Z,6.00
2017-11-19T09:11:47.928Z,6.00
2017-11-19T09:14:17.014Z,6.00
2017-11-19T09:16:45.553Z,6.00
2017-11-19T09:19:14.650Z,6.00
2017-11-19T09:21:42.948Z,6.10
2017-11-19T09:24:11.189Z,6.20
2017-11-19T09:26:40.205Z,6.30
2017-11-19T09:29:08.540Z,6.30
2017-11-19T09:31:37.599Z,6.50
2017-11-19T09:34:05.923Z,6.50
2017-11-19T09:36:35.549Z,6.20
2017-11-19T09:39:03.882Z,6.20
2017-11-19T09:41:34.103Z,6.30
2017-11-19T09:44:02.644Z,6.20
2017-11-19T09:46:35.010Z,6.10
2017-11-19T09:49:03.297Z,6.10
2017-11-19T09:51:33.043Z,6.00
2017-11-19T09:54:02.180Z,6.10
2017-11-19T09:56:30.915Z,6.00
2017-11-19T09:59:00.011Z,6.10
2017-11-19T10:01:28.266Z,6.00
2017-11-19T10:03:56.613Z,6.00
2017-11-19T10:06:25.700Z,6.40
2017-11-19T10:08:54.930Z,6.40
2017-11-19T10:11:23.266Z,6.30
2017-11-19T10:13:51.528Z,6.30
2017-11-19T10:16:19.985Z,6.30
2017-11-19T10:18:48.320Z,6.40
2017-11-19T10:21:17.362Z,6.50
2017-11-19T10:23:45.679Z,6.40
2017-11-19T10:26:15.038Z,6.60
2017-11-19T10:28:43.317Z,6.50
2017-11-19T10:31:11.589Z,6.50
2017-11-19T10:33:39.864Z,6.30
2017-11-19T10:36:08.974Z,6.20
2017-11-19T10:38:37.954Z,6.20
2017-11-19T10:41:08.592Z,6.30
2017-11-19T10:43:36.859Z,6.30
2017-11-19T10:46:05.864Z,6.20
2017-11-19T10:48:34.970Z,6.20
2017-11-19T10:51:03.723Z,6.20
2017-11-19T10:53:32.827Z,6.00
2017-11-19T10:56:02.392Z,6.00
2017-11-19T10:58:31.186Z,5.90
2017-11-19T11:01:02.434Z,6.10
2017-11-19T11:03:30.752Z,6.00
2017-11-19T11:06:01.738Z,6.00
2017-11-19T11:08:30.021Z,6.00
2017-11-19T11:10:58.509Z,6.00
2017-11-19T11:13:27.031Z,6.00
2017-11-19T11:15:55.321Z,5.90
2017-11-19T11:18:23.573Z,5.90
2017-11-19T11:20:52.296Z,5.90
2017-11-19T11:23:21.433Z,5.90
2017-11-19T11:25:49.676Z,5.90
2017-11-19T11:28:17.961Z,5.80
2017-11-19T11:30:46.269Z,5.80
2017-11-19T11:33:16.316Z,5.80
2017-11-19T11:35:45.283Z,5.80
2017-11-19T11:38:14.900Z,5.80
2017-11-19T11:40:44.019Z,5.80
2017-11-19T11:43:13.068Z,5.80
2017-11-19T11:45:41.670Z,5.80
2017-11-19T11:48:10.044Z,5.90
2017-11-19T11:50:40.183Z,6.10
2017-11-19T11:53:08.520Z,6.30
2017-11-19T11:55:37.735Z,6.40
2017-11-19T11:58:06.745Z,6.40
2017-11-19T12:00:35.116Z,6.60
2017-11-19T12:03:03.444Z,6.70
2017-11-19T12:05:32.884Z,6.70
2017-11-19T12:08:01.185Z,6.80
2017-11-19T12:10:29.556Z,6.70
2017-11-19T12:12:57.880Z,6.70
2017-11-19T12:15:27.657Z,6.50
2017-11-19T12:17:55.991Z,6.50
2017-11-19T12:20:24.271Z,6.60
2017-11-19T12:22:52.902Z,6.60
2017-11-19T12:25:22.142Z,6.70
2017-11-19T12:27:51.029Z,6.70
2017-11-19T12:30:20.229Z,6.70
2017-11-19T12:32:49.594Z,6.70
2017-11-19T12:35:17.896Z,6.70
2017-11-19T12:37:46.169Z,6.80
2017-11-19T12:40:14.790Z,6.90
2017-11-19T12:42:44.375Z,7.00
2017-11-19T12:45:13.491Z,6.90
2017-11-19T12:47:41.817Z,6.80
2017-11-19T12:50:11.727Z,6.90
2017-11-19T12:52:40.123Z,6.90
2017-11-19T12:55:08.397Z,7.00
2017-11-19T12:57:37.689Z,7.10
2017-11-19T13:00:07.031Z,7.10
2017-11-19T13:02:35.678Z,7.40
2017-11-19T13:05:05.510Z,7.50
2017-11-19T13:07:38.873Z,7.50
2017-11-19T13:10:09.944Z,7.40
2017-11-19T13:12:39.151Z,7.40
2017-11-19T13:15:09.008Z,7.40
2017-11-19T13:17:37.979Z,7.30
2017-11-19T13:20:07.006Z,7.40
2017-11-19T13:22:36.645Z,7.40
2017-11-19T13:25:05.928Z,7.40
2017-11-19T13:27:34.143Z,7.20
2017-11-19T13:30:03.244Z,7.30
2017-11-19T13:32:33.205Z,7.20
2017-11-19T13:35:01.573Z,7.10
2017-11-19T13:37:29.818Z,7.00
2017-11-19T13:39:58.870Z,6.90
2017-11-19T13:42:27.234Z,6.90
2017-11-19T13:44:56.509Z,6.90
2017-11-19T13:47:25.466Z,6.90
2017-11-19T13:49:54.197Z,6.90
2017-11-19T13:52:23.247Z,6.80
2017-11-19T13:54:51.517Z,6.80
2017-11-19T13:57:19.765Z,6.80
2017-11-19T13:59:48.067Z,6.80
2017-11-19T14:02:17.335Z,6.90
2017-11-19T14:04:45.623Z,6.90
2017-11-19T14:07:14.972Z,6.80
2017-11-19T14:09:44.412Z,6.10
2017-11-19T14:12:12.658Z,6.10
2017-11-19T14:14:41.780Z,5.60
2017-11-19T14:17:11.301Z,5.50
2017-11-19T14:19:39.586Z,5.50
2017-11-19T14:22:07.900Z,5.50
2017-11-19T14:24:36.232Z,5.60
2017-11-19T14:27:04.592Z,5.60
2017-11-19T14:29:33.603Z,5.80
2017-11-19T14:32:02.135Z,5.70
2017-11-19T14:34:30.649Z,5.80
2017-11-19T14:36:59.092Z,5.90
2017-11-19T14:39:27.396Z,6.00
2017-11-19T14:41:56.408Z,6.20
2017-11-19T14:44:25.528Z,6.40
2017-11-19T14:46:53.846Z,6.30
2017-11-19T14:49:22.213Z,6.50
2017-11-19T14:51:50.476Z,6.50
2017-11-19T14:54:18.908Z,6.50
2017-11-19T14:56:47.988Z,6.50
2017-11-19T14:59:16.425Z,6.50
2017-11-19T15:01:44.793Z,6.50
2017-11-19T15:04:13.922Z,6.60
2017-11-19T15:06:43.055Z,6.50
2017-11-19T15:09:11.359Z,6.20
2017-11-19T15:11:39.670Z,6.00
2017-11-19T15:14:07.940Z,5.80
2017-11-19T15:16:36.292Z,5.60
2017-11-19T15:19:04.541Z,5.50
2017-11-19T15:21:33.569Z,5.40
2017-11-19T15:24:01.899Z,5.40
2017-11-19T15:26:30.281Z,5.40
2017-11-19T15:28:58.615Z,5.50
2017-11-19T15:31:26.898Z,5.50
2017-11-19T15:33:55.183Z,5.50
2017-11-19T15:36:23.799Z,5.60
2017-11-19T15:38:52.285Z,5.60
2017-11-19T15:41:21.830Z,5.80
2017-11-19T15:43:50.239Z,5.80
2017-11-19T15:46:18.679Z,5.90
2017-11-19T15:48:47.859Z,6.00
2017-11-19T15:51:16.129Z,6.00
2017-11-19T15:53:45.342Z,6.00
2017-11-19T15:56:14.403Z,5.80
2017-11-19T15:58:42.767Z,5.80
2017-11-19T16:01:10.995Z,5.80
2017-11-19T16:03:40.385Z,5.80
2017-11-19T16:06:08.671Z,5.90
2017-11-19T16:08:36.945Z,5.90
2017-11-19T16:11:05.989Z,5.90
2017-11-19T16:13:34.319Z,6.00
2017-11-19T16:16:02.838Z,6.00
2017-11-19T16:18:31.124Z,6.00
2017-11-19T16:20:59.379Z,6.10
2017-11-19T16:23:27.731Z,6.10
2017-11-19T16:25:55.980Z,6.10
2017-11-19T16:28:24.772Z,6.10
2017-11-19T16:30:53.192Z,6.20
2017-11-19T16:33:21.499Z,6.20
2017-11-19T16:35:50.649Z,6.30
2017-11-19T16:38:19.112Z,6.30
2017-11-19T16:40:47.401Z,6.20
2017-11-19T16:43:15.724Z,6.20
2017-11-19T16:45:44.015Z,6.20
2017-11-19T16:48:12.275Z,6.10
2017-11-19T16:50:41.351Z,6.00
2017-11-19T16:53:10.392Z,6.00
2017-11-19T16:55:38.799Z,5.90
2017-11-19T16:58:07.159Z,6.00
2017-11-19T17:00:35.594Z,6.00
2017-11-19T17:03:03.917Z,6.00
2017-11-19T17:05:32.449Z,6.00
2017-11-19T17:08:02.223Z,5.90
2017-11-19T17:10:30.766Z,5.90
2017-11-19T17:12:59.866Z,5.90
2017-11-19T17:15:28.183Z,5.90
2017-11-19T17:17:56.498Z,5.80
2017-11-19T17:20:24.813Z,5.80
2017-11-19T17:22:53.255Z,5.80
2017-11-19T17:25:22.964Z,5.90
2017-11-19T17:27:51.996Z,5.80
2017-11-19T17:30:20.248Z,5.80
2017-11-19T17:32:48.650Z,5.80
2017-11-19T17:35:16.952Z,5.80
2017-11-19T17:37:45.207Z,5.70
2017-11-19T17:40:13.488Z,5.80
2017-11-19T17:42:41.878Z,5.80
2017-11-19T17:45:10.146Z,5.80
2017-11-19T17:47:38.510Z,5.80
2017-11-19T17:50:07.799Z,5.70
2017-11-19T17:52:36.136Z,5.70
2017-11-19T17:55:04.464Z,5.70
2017-11-19T17:57:34.550Z,5.70
2017-11-19T18:00:03.081Z,5.70
2017-11-19T18:02:31.537Z,5.80
2017-11-19T18:05:03.682Z,5.80
2017-11-19T18:07:33.663Z,5.80
2017-11-19T18:10:03.700Z,5.80
2017-11-19T18:12:34.576Z,5.80
2017-11-19T18:15:02.862Z,5.80
2017-11-19T18:17:31.985Z,5.70
2017-11-19T18:20:00.449Z,5.70
2017-11-19T18:22:29.731Z,5.70
2017-11-19T18:24:58.218Z,5.60
2017-11-19T18:27:27.497Z,5.60
2017-11-19T18:29:56.120Z,5.60
2017-11-19T18:32:24.579Z,5.60
2017-11-19T18:34:52.896Z,5.60
2017-11-19T18:37:21.234Z,5.50
2017-11-19T18:39:49.833Z,5.50
2017-11-19T18:42:18.212Z,5.60
2017-11-19T18:44:46.680Z,5.60
2017-11-19T18:47:15.027Z,5.60
2017-11-19T18:49:43.321Z,5.60
2017-11-19T18:52:11.666Z,5.60
2017-11-19T18:54:39.970Z,5.50
2017-11-19T18:57:08.311Z,5.60
2017-11-19T18:59:37.780Z,5.50
2017-11-19T19:02:06.121Z,5.50
2017-11-19T19:04:34.410Z,5.60
2017-11-19T19:07:04.558Z,5.60
2017-11-19T19:09:32.804Z,5.50
2017-11-19T19:12:02.043Z,5.60
2017-11-19T19:14:31.597Z,5.60
2017-11-19T19:17:01.558Z,5.60
2017-11-19T19:19:31.970Z,5.60
2017-11-19T19:22:01.557Z,5.60
2017-11-19T19:24:29.892Z,5.60
2017-11-19T19:26:59.086Z,5.60
2017-11-19T19:29:28.014Z,5.50
2017-11-19T19:31:56.596Z,5.50
2017-11-19T19:34:26.674Z,5.50
2017-11-19T19:36:56.084Z,5.50
2017-11-19T19:39:25.272Z,5.50
2017-11-19T19:41:53.747Z,5.50
2017-11-19T19:44:22.033Z,5.50
2017-11-19T19:46:51.025Z,5.50
2017-11-19T19:49:19.320Z,5.50
2017-11-19T19:51:48.622Z,5.50
2017-11-19T19:54:17.864Z,5.50
2017-11-19T19:56:46.254Z,5.50
2017-11-19T19:59:14.699Z,5.50
2017-11-19T20:01:43.531Z,5.50
2017-11-19T20:04:11.844Z,5.50
2017-11-19T20:06:40.235Z,5.60
2017-11-19T20:09:09.521Z,5.50
2017-11-19T20:11:38.004Z,5.50
2017-11-19T20:14:06.686Z,5.50
2017-11-19T20:16:35.803Z,5.50
2017-11-19T20:19:04.677Z,5.50
2017-11-19T20:21:42.902Z,5.40
2017-11-19T20:24:12.070Z,5.40
2017-11-19T20:26:40.674Z,5.40
2017-11-19T20:29:09.823Z,5.40
2017-11-19T20:31:39.887Z,5.40
2017-11-19T20:34:08.421Z,5.40
2017-11-19T20:36:37.069Z,5.50
2017-11-19T20:39:06.424Z,5.50
2017-11-19T20:41:34.867Z,5.60
2017-11-19T20:44:04.046Z,5.50
2017-11-19T20:46:32.443Z,5.50
2017-11-19T20:49:00.747Z,5.40
2017-11-19T20:51:29.138Z,5.50
2017-11-19T20:53:57.586Z,5.50
2017-11-19T20:56:27.684Z,5.50
2017-11-19T20:58:56.148Z,5.50
2017-11-19T21:01:24.600Z,5.50
2017-11-19T21:03:53.009Z,5.60
2017-11-19T21:06:21.402Z,5.60
2017-11-19T21:08:49.702Z,5.60
2017-11-19T21:11:17.986Z,5.60
2017-11-19T21:13:46.253Z,5.60
2017-11-19T21:16:15.448Z,5.70
2017-11-19T21:18:44.741Z,5.60
2017-11-19T21:21:12.998Z,5.60
2017-11-19T21:23:41.334Z,5.60
2017-11-19T21:26:10.406Z,5.60
2017-11-19T21:28:38.879Z,5.60
2017-11-19T21:31:08.100Z,5.60
2017-11-19T21:33:36.907Z,5.60
2017-11-19T21:36:05.567Z,5.60
2017-11-19T21:38:34.128Z,5.60
2017-11-19T21:41:02.795Z,5.50
2017-11-19T21:43:32.129Z,5.50
2017-11-19T21:46:00.523Z,5.50
2017-11-19T21:48:29.615Z,5.50
2017-11-19T21:50:57.866Z,5.40
2017-11-19T21:53:26.165Z,5.40
2017-11-19T21:55:55.462Z,5.50
2017-11-19T21:58:23.950Z,5.50
2017-11-19T22:00:52.287Z,5.50
2017-11-19T22:03:20.524Z,5.50
2017-11-19T22:05:48.893Z,5.40
2017-11-19T22:08:17.954Z,5.50
2017-11-19T22:10:47.887Z,5.50
2017-11-19T22:13:16.200Z,5.50
2017-11-19T22:15:44.558Z,5.50
2017-11-19T22:18:14.319Z,5.60
2017-11-19T22:20:43.506Z,5.60
2017-11-19T22:23:12.735Z,5.60
2017-11-19T22:25:40.977Z,5.60
2017-11-19T22:28:10.043Z,5.60
2017-11-19T22:30:38.261Z,5.60
2017-11-19T22:33:06.506Z,5.60
2017-11-19T22:35:34.831Z,5.60
2017-11-19T22:38:03.193Z,5.60
2017-11-19T22:40:31.729Z,5.60
2017-11-19T22:43:00.308Z,5.50
2017-11-19T22:45:30.219Z,5.40
2017-11-19T22:47:59.834Z,5.40
2017-11-19T22:50:28.747Z,5.50
2017-11-19T22:52:57.072Z,5.50
2017-11-19T22:55:26.397Z,5.50
2017-11-19T22:57:55.237Z,5.50
2017-11-19T23:00:24.513Z,5.60
2017-11-19T23:02:52.819Z,5.50
2017-11-19T23:05:21.456Z,5.60
2017-11-19T23:07:50.523Z,5.50
2017-11-19T23:10:19.717Z,5.50
2017-11-19T23:12:47.985Z,5.50
2017-11-19T23:15:16.238Z,5.50
2017-11-19T23:17:45.252Z,5.50
2017-11-19T23:20:13.505Z,5.50
2017-11-19T23:22:42.514Z,5.50
2017-11-19T23:25:10.777Z,5.50
2017-11-19T23:27:40.465Z,5.60
2017-11-19T23:30:08.755Z,5.60
2017-11-19T23:32:37.019Z,5.60
2017-11-19T23:35:06.067Z,5.50
2017-11-19T23:37:34.347Z,5.50
2017-11-19T23:40:02.581Z,5.60
2017-11-19T23:42:31.645Z,5.60
2017-11-19T23:44:59.914Z,5.60
2017-11-19T23:47:31.026Z,5.60
2017-11-19T23:49:59.994Z,5.70
2017-11-19T23:52:28.740Z,5.70
2017-11-19T23:54:57.027Z,5.80
2017-11-19T23:57:25.272Z,5.70
2017-11-19T23:59:53.542Z,5.60
